sensor_id;sensor_type;location;lat;lon;timestamp;P1;durP1;ratioP1;P2;durP2;ratioP2
27746;SDS011;15138;51.012;4.692;2024-01-15T00:00:19;29.30;;;11.18;;
27746;SDS011;15138;51.012;4.692;2024-01-15T00:02:49;31.27;;;13.05;;
27746;SDS011;15138;51.012;4.692;2024-01-15T00:05:18;24.27;;;10.05;;
27746;SDS011;15138;51.012;4.692;2024-01-15T00:07:46;29.50;;;12.27;;
27746;SDS011;15138;51.012;4.692;2024-01-15T00:10:17;25.77;;;10.20;;
27746;SDS011;15138;51.012;4.692;2024-01-15T00:12:45;29.90;;;12.63;;
27746;SDS011;15138;51.012;4.692;2024-01-15T00:15:16;28.00;;;11.63;;
27746;SDS011;15138;51.012;4.692;2024-01-15T00:17:44;22.65;;;9.68;;
27746;SDS011;15138;51.012;4.692;2024-01-15T00:20:13;27.67;;;10.20;;
27746;SDS011;15138;51.012;4.692;2024-01-15T00:22:41;28.42;;;11.52;;
27746;SDS011;15138;51.012;4.692;2024-01-15T00:25:09;29.77;;;11.32;;
27746;SDS011;15138;51.012;4.692;2024-01-15T00:27:39;25.25;;;11.07;;
27746;SDS011;15138;51.012;4.692;2024-01-15T00:30:08;20.90;;;8.90;;
27746;SDS011;15138;51.012;4.692;2024-01-15T00:32:37;21.08;;;8.65;;
27746;SDS011;15138;51.012;4.692;2024-01-15T00:35:06;20.08;;;8.85;;
27746;SDS011;15138;51.012;4.692;2024-01-15T00:37:40;20.75;;;9.88;;
27746;SDS011;15138;51.012;4.692;2024-01-15T00:40:09;24.08;;;9.18;;
27746;SDS011;15138;51.012;4.692;2024-01-15T00:42:38;19.10;;;8.63;;
27746;SDS011;15138;51.012;4.692;2024-01-15T00:45:08;26.10;;;9.05;;
27746;SDS011;15138;51.012;4.692;2024-01-15T00:47:38;17.88;;;8.63;;
27746;SDS011;15138;51.012;4.692;2024-01-15T00:50:07;20.70;;;8.50;;
27746;SDS011;15138;51.012;4.692;2024-01-15T00:52:35;19.83;;;8.32;;
27746;SDS011;15138;51.012;4.692;2024-01-15T00:55:04;25.20;;;9.40;;
27746;SDS011;15138;51.012;4.692;2024-01-15T00:57:33;21.15;;;8.82;;
27746;SDS011;15138;51.012;4.692;2024-01-15T01:00:01;22.35;;;9.38;;
27746;SDS011;15138;51.012;4.692;2024-01-15T01:02:33;16.80;;;7.63;;
27746;SDS011;15138;51.012;4.692;2024-01-15T01:05:02;17.77;;;8.50;;
27746;SDS011;15138;51.012;4.692;2024-01-15T01:07:30;13.48;;;7.18;;
27746;SDS011;15138;51.012;4.692;2024-01-15T01:09:59;19.23;;;8.63;;
27746;SDS011;15138;51.012;4.692;2024-01-15T01:12:27;21.92;;;7.78;;
27746;SDS011;15138;51.012;4.692;2024-01-15T01:14:56;17.10;;;8.30;;
27746;SDS011;15138;51.012;4.692;2024-01-15T01:17:25;19.17;;;7.88;;
27746;SDS011;15138;51.012;4.692;2024-01-15T01:19:55;17.55;;;8.02;;
27746;SDS011;15138;51.012;4.692;2024-01-15T01:22:24;16.80;;;7.10;;
27746;SDS011;15138;51.012;4.692;2024-01-15T01:24:54;17.20;;;7.60;;
27746;SDS011;15138;51.012;4.692;2024-01-15T01:27:23;13.55;;;6.38;;
27746;SDS011;15138;51.012;4.692;2024-01-15T01:29:52;19.73;;;7.38;;
27746;SDS011;15138;51.012;4.692;2024-01-15T01:32:22;15.27;;;6.55;;
27746;SDS011;15138;51.012;4.692;2024-01-15T01:34:50;15.30;;;5.97;;
27746;SDS011;15138;51.012;4.692;2024-01-15T01:37:20;12.90;;;6.55;;
27746;SDS011;15138;51.012;4.692;2024-01-15T01:39:49;16.73;;;6.32;;
27746;SDS011;15138;51.012;4.692;2024-01-15T01:42:17;18.35;;;7.63;;
27746;SDS011;15138;51.012;4.692;2024-01-15T01:44:47;14.45;;;6.53;;
27746;SDS011;15138;51.012;4.692;2024-01-15T01:47:17;14.43;;;6.90;;
27746;SDS011;15138;51.012;4.692;2024-01-15T01:49:45;14.50;;;6.60;;
27746;SDS011;15138;51.012;4.692;2024-01-15T01:52:14;11.80;;;5.53;;
27746;SDS011;15138;51.012;4.692;2024-01-15T01:54:46;12.25;;;5.28;;
27746;SDS011;15138;51.012;4.692;2024-01-15T01:57:15;14.75;;;6.47;;
27746;SDS011;15138;51.012;4.692;2024-01-15T01:59:45;14.10;;;6.40;;
27746;SDS011;15138;51.012;4.692;2024-01-15T02:02:14;11.10;;;5.90;;
27746;SDS011;15138;51.012;4.692;2024-01-15T02:04:42;17.40;;;6.32;;
27746;SDS011;15138;51.012;4.692;2024-01-15T02:07:11;14.85;;;6.20;;
27746;SDS011;15138;51.012;4.692;2024-01-15T02:09:41;12.98;;;5.25;;
27746;SDS011;15138;51.012;4.692;2024-01-15T02:12:10;12.95;;;5.65;;
27746;SDS011;15138;51.012;4.692;2024-01-15T02:14:39;10.95;;;5.22;;
27746;SDS011;15138;51.012;4.692;2024-01-15T02:17:08;12.18;;;5.43;;
27746;SDS011;15138;51.012;4.692;2024-01-15T02:19:36;10.80;;;5.45;;
27746;SDS011;15138;51.012;4.692;2024-01-15T02:22:06;12.32;;;4.90;;
27746;SDS011;15138;51.012;4.692;2024-01-15T02:24:36;9.98;;;4.72;;
27746;SDS011;15138;51.012;4.692;2024-01-15T02:27:04;11.13;;;4.20;;
27746;SDS011;15138;51.012;4.692;2024-01-15T02:29:33;8.82;;;4.65;;
27746;SDS011;15138;51.012;4.692;2024-01-15T02:32:04;10.85;;;3.63;;
27746;SDS011;15138;51.012;4.692;2024-01-15T02:34:34;7.40;;;3.53;;
27746;SDS011;15138;51.012;4.692;2024-01-15T02:37:03;6.63;;;3.63;;
27746;SDS011;15138;51.012;4.692;2024-01-15T02:39:32;8.07;;;3.63;;
27746;SDS011;15138;51.012;4.692;2024-01-15T02:42:02;8.18;;;3.63;;
27746;SDS011;15138;51.012;4.692;2024-01-15T02:44:30;7.63;;;3.28;;
27746;SDS011;15138;51.012;4.692;2024-01-15T02:46:59;7.57;;;3.33;;
27746;SDS011;15138;51.012;4.692;2024-01-15T02:49:27;7.07;;;3.30;;
27746;SDS011;15138;51.012;4.692;2024-01-15T02:51:56;6.50;;;3.20;;
27746;SDS011;15138;51.012;4.692;2024-01-15T02:54:24;7.90;;;2.97;;
27746;SDS011;15138;51.012;4.692;2024-01-15T02:56:52;4.88;;;2.53;;
27746;SDS011;15138;51.012;4.692;2024-01-15T02:59:22;7.78;;;2.60;;
27746;SDS011;15138;51.012;4.692;2024-01-15T03:01:51;5.00;;;2.40;;
27746;SDS011;15138;51.012;4.692;2024-01-15T03:04:19;4.90;;;2.60;;
27746;SDS011;15138;51.012;4.692;2024-01-15T03:06:47;4.47;;;2.25;;
27746;SDS011;15138;51.012;4.692;2024-01-15T03:09:16;6.97;;;2.70;;
27746;SDS011;15138;51.012;4.692;2024-01-15T03:11:44;6.82;;;2.33;;
27746;SDS011;15138;51.012;4.692;2024-01-15T03:14:13;6.38;;;2.83;;
27746;SDS011;15138;51.012;4.692;2024-01-15T03:16:43;5.20;;;2.40;;
27746;SDS011;15138;51.012;4.692;2024-01-15T03:19:11;4.78;;;2.75;;
27746;SDS011;15138;51.012;4.692;2024-01-15T03:21:40;8.40;;;3.03;;
27746;SDS011;15138;51.012;4.692;2024-01-15T03:24:08;8.68;;;2.67;;
27746;SDS011;15138;51.012;4.692;2024-01-15T03:26:36;5.88;;;2.40;;
27746;SDS011;15138;51.012;4.692;2024-01-15T03:29:05;7.13;;;2.80;;
27746;SDS011;15138;51.012;4.692;2024-01-15T03:31:34;6.32;;;2.63;;
27746;SDS011;15138;51.012;4.692;2024-01-15T03:34:04;7.75;;;2.30;;
27746;SDS011;15138;51.012;4.692;2024-01-15T03:36:32;3.53;;;2.10;;
27746;SDS011;15138;51.012;4.692;2024-01-15T03:39:01;4.13;;;2.15;;
27746;SDS011;15138;51.012;4.692;2024-01-15T03:41:29;3.13;;;1.98;;
27746;SDS011;15138;51.012;4.692;2024-01-15T03:43:58;5.40;;;2.45;;
27746;SDS011;15138;51.012;4.692;2024-01-15T03:46:27;8.52;;;2.95;;
27746;SDS011;15138;51.012;4.692;2024-01-15T03:48:56;9.30;;;3.42;;
27746;SDS011;15138;51.012;4.692;2024-01-15T03:51:26;4.72;;;2.42;;
27746;SDS011;15138;51.012;4.692;2024-01-15T03:53:54;5.53;;;2.90;;
27746;SDS011;15138;51.012;4.692;2024-01-15T03:56:23;6.72;;;2.60;;
27746;SDS011;15138;51.012;4.692;2024-01-15T03:58:51;6.22;;;2.60;;
27746;SDS011;15138;51.012;4.692;2024-01-15T04:01:20;7.85;;;2.78;;
27746;SDS011;15138;51.012;4.692;2024-01-15T04:03:48;7.05;;;2.70;;
27746;SDS011;15138;51.012;4.692;2024-01-15T04:06:17;5.40;;;2.80;;
27746;SDS011;15138;51.012;4.692;2024-01-15T04:08:47;6.75;;;2.40;;
27746;SDS011;15138;51.012;4.692;2024-01-15T04:11:15;8.93;;;3.05;;
27746;SDS011;15138;51.012;4.692;2024-01-15T04:13:44;5.65;;;2.80;;
27746;SDS011;15138;51.012;4.692;2024-01-15T04:16:12;4.75;;;2.80;;
27746;SDS011;15138;51.012;4.692;2024-01-15T04:18:40;5.85;;;2.40;;
27746;SDS011;15138;51.012;4.692;2024-01-15T04:21:09;8.75;;;2.95;;
27746;SDS011;15138;51.012;4.692;2024-01-15T04:23:38;4.93;;;2.60;;
27746;SDS011;15138;51.012;4.692;2024-01-15T04:26:08;4.90;;;3.00;;
27746;SDS011;15138;51.012;4.692;2024-01-15T04:28:36;6.38;;;3.38;;
27746;SDS011;15138;51.012;4.692;2024-01-15T04:31:05;5.97;;;3.05;;
27746;SDS011;15138;51.012;4.692;2024-01-15T04:33:34;4.53;;;2.65;;
27746;SDS011;15138;51.012;4.692;2024-01-15T04:36:03;10.85;;;4.07;;
27746;SDS011;15138;51.012;4.692;2024-01-15T04:38:32;7.32;;;3.47;;
27746;SDS011;15138;51.012;4.692;2024-01-15T04:41:02;7.70;;;3.95;;
27746;SDS011;15138;51.012;4.692;2024-01-15T04:43:32;8.50;;;2.85;;
27746;SDS011;15138;51.012;4.692;2024-01-15T04:46:01;9.13;;;3.55;;
27746;SDS011;15138;51.012;4.692;2024-01-15T04:48:31;9.00;;;4.05;;
27746;SDS011;15138;51.012;4.692;2024-01-15T04:50:59;7.78;;;4.18;;
27746;SDS011;15138;51.012;4.692;2024-01-15T04:53:28;7.57;;;4.18;;
27746;SDS011;15138;51.012;4.692;2024-01-15T04:55:56;9.40;;;4.03;;
27746;SDS011;15138;51.012;4.692;2024-01-15T04:58:25;10.82;;;4.22;;
27746;SDS011;15138;51.012;4.692;2024-01-15T05:00:55;8.77;;;4.65;;
27746;SDS011;15138;51.012;4.692;2024-01-15T05:03:24;8.68;;;4.60;;
27746;SDS011;15138;51.012;4.692;2024-01-15T05:05:52;11.80;;;5.30;;
27746;SDS011;15138;51.012;4.692;2024-01-15T05:08:21;9.75;;;5.10;;
27746;SDS011;15138;51.012;4.692;2024-01-15T05:10:49;10.80;;;4.82;;
27746;SDS011;15138;51.012;4.692;2024-01-15T05:13:17;9.82;;;5.20;;
27746;SDS011;15138;51.012;4.692;2024-01-15T05:15:46;8.88;;;4.85;;
27746;SDS011;15138;51.012;4.692;2024-01-15T05:18:16;12.55;;;5.22;;
27746;SDS011;15138;51.012;4.692;2024-01-15T05:20:45;13.15;;;5.75;;
27746;SDS011;15138;51.012;4.692;2024-01-15T05:23:13;10.20;;;5.03;;
27746;SDS011;15138;51.012;4.692;2024-01-15T05:25:42;10.77;;;5.90;;
27746;SDS011;15138;51.012;4.692;2024-01-15T05:28:10;9.95;;;4.72;;
27746;SDS011;15138;51.012;4.692;2024-01-15T05:30:39;9.82;;;5.30;;
27746;SDS011;15138;51.012;4.692;2024-01-15T05:33:07;10.32;;;5.30;;
27746;SDS011;15138;51.012;4.692;2024-01-15T05:35:37;12.73;;;5.35;;
27746;SDS011;15138;51.012;4.692;2024-01-15T05:38:06;10.63;;;4.95;;
27746;SDS011;15138;51.012;4.692;2024-01-15T05:40:34;11.20;;;5.30;;
27746;SDS011;15138;51.012;4.692;2024-01-15T05:43:03;11.60;;;4.85;;
27746;SDS011;15138;51.012;4.692;2024-01-15T05:45:31;10.02;;;4.15;;
27746;SDS011;15138;51.012;4.692;2024-01-15T05:48:00;7.15;;;3.33;;
27746;SDS011;15138;51.012;4.692;2024-01-15T05:50:28;8.07;;;3.88;;
27746;SDS011;15138;51.012;4.692;2024-01-15T05:52:58;10.25;;;4.38;;
27746;SDS011;15138;51.012;4.692;2024-01-15T05:55:26;10.50;;;4.07;;
27746;SDS011;15138;51.012;4.692;2024-01-15T05:57:55;10.50;;;3.95;;
27746;SDS011;15138;51.012;4.692;2024-01-15T06:00:23;5.50;;;2.83;;
27746;SDS011;15138;51.012;4.692;2024-01-15T06:02:52;9.38;;;3.38;;
27746;SDS011;15138;51.012;4.692;2024-01-15T06:05:20;9.60;;;3.20;;
27746;SDS011;15138;51.012;4.692;2024-01-15T06:07:49;9.98;;;3.88;;
27746;SDS011;15138;51.012;4.692;2024-01-15T06:10:18;9.93;;;3.10;;
27746;SDS011;15138;51.012;4.692;2024-01-15T06:12:47;12.95;;;3.10;;
27746;SDS011;15138;51.012;4.692;2024-01-15T06:15:15;7.20;;;2.50;;
27746;SDS011;15138;51.012;4.692;2024-01-15T06:17:44;9.18;;;3.03;;
27746;SDS011;15138;51.012;4.692;2024-01-15T06:20:13;5.80;;;3.03;;
27746;SDS011;15138;51.012;4.692;2024-01-15T06:22:41;4.47;;;2.47;;
27746;SDS011;15138;51.012;4.692;2024-01-15T06:25:10;5.38;;;2.05;;
27746;SDS011;15138;51.012;4.692;2024-01-15T06:27:40;6.53;;;2.22;;
27746;SDS011;15138;51.012;4.692;2024-01-15T06:30:09;9.95;;;2.42;;
27746;SDS011;15138;51.012;4.692;2024-01-15T06:32:38;9.27;;;2.20;;
27746;SDS011;15138;51.012;4.692;2024-01-15T06:35:07;6.00;;;1.88;;
27746;SDS011;15138;51.012;4.692;2024-01-15T06:37:37;8.95;;;2.28;;
27746;SDS011;15138;51.012;4.692;2024-01-15T06:40:05;5.10;;;1.77;;
27746;SDS011;15138;51.012;4.692;2024-01-15T06:42:34;6.40;;;1.83;;
27746;SDS011;15138;51.012;4.692;2024-01-15T06:45:05;6.65;;;1.70;;
27746;SDS011;15138;51.012;4.692;2024-01-15T06:47:33;5.38;;;1.60;;
27746;SDS011;15138;51.012;4.692;2024-01-15T06:50:02;3.65;;;1.52;;
27746;SDS011;15138;51.012;4.692;2024-01-15T06:52:31;5.22;;;1.60;;
27746;SDS011;15138;51.012;4.692;2024-01-15T06:54:59;7.05;;;1.92;;
27746;SDS011;15138;51.012;4.692;2024-01-15T06:57:28;6.88;;;1.65;;
27746;SDS011;15138;51.012;4.692;2024-01-15T06:59:56;8.02;;;1.40;;
27746;SDS011;15138;51.012;4.692;2024-01-15T07:02:26;5.47;;;1.50;;
27746;SDS011;15138;51.012;4.692;2024-01-15T07:04:55;9.98;;;1.70;;
27746;SDS011;15138;51.012;4.692;2024-01-15T07:07:23;2.95;;;1.20;;
27746;SDS011;15138;51.012;4.692;2024-01-15T07:09:55;7.30;;;1.83;;
27746;SDS011;15138;51.012;4.692;2024-01-15T07:12:23;4.28;;;1.20;;
27746;SDS011;15138;51.012;4.692;2024-01-15T07:14:52;6.78;;;1.38;;
27746;SDS011;15138;51.012;4.692;2024-01-15T07:17:21;4.90;;;1.80;;
27746;SDS011;15138;51.012;4.692;2024-01-15T07:19:51;3.83;;;1.35;;
27746;SDS011;15138;51.012;4.692;2024-01-15T07:22:19;7.40;;;1.70;;
27746;SDS011;15138;51.012;4.692;2024-01-15T07:24:48;8.52;;;1.90;;
27746;SDS011;15138;51.012;4.692;2024-01-15T07:27:16;8.13;;;1.58;;
27746;SDS011;15138;51.012;4.692;2024-01-15T07:29:45;2.97;;;1.63;;
27746;SDS011;15138;51.012;4.692;2024-01-15T07:32:15;4.55;;;1.48;;
27746;SDS011;15138;51.012;4.692;2024-01-15T07:34:43;8.90;;;2.03;;
27746;SDS011;15138;51.012;4.692;2024-01-15T07:37:13;2.47;;;1.38;;
27746;SDS011;15138;51.012;4.692;2024-01-15T07:39:42;6.68;;;1.50;;
27746;SDS011;15138;51.012;4.692;2024-01-15T07:42:11;3.45;;;1.23;;
27746;SDS011;15138;51.012;4.692;2024-01-15T07:44:40;8.30;;;1.25;;
27746;SDS011;15138;51.012;4.692;2024-01-15T07:47:08;4.65;;;1.65;;
27746;SDS011;15138;51.012;4.692;2024-01-15T07:49:37;6.50;;;1.80;;
27746;SDS011;15138;51.012;4.692;2024-01-15T07:52:05;4.03;;;1.42;;
27746;SDS011;15138;51.012;4.692;2024-01-15T07:54:36;6.28;;;1.95;;
27746;SDS011;15138;51.012;4.692;2024-01-15T07:57:05;6.50;;;1.65;;
27746;SDS011;15138;51.012;4.692;2024-01-15T07:59:34;7.72;;;1.70;;
27746;SDS011;15138;51.012;4.692;2024-01-15T08:02:03;3.40;;;1.52;;
27746;SDS011;15138;51.012;4.692;2024-01-15T08:04:32;7.63;;;2.03;;
27746;SDS011;15138;51.012;4.692;2024-01-15T08:07:01;3.58;;;1.40;;
27746;SDS011;15138;51.012;4.692;2024-01-15T08:09:29;6.90;;;1.50;;
27746;SDS011;15138;51.012;4.692;2024-01-15T08:11:59;4.18;;;1.30;;
27746;SDS011;15138;51.012;4.692;2024-01-15T08:14:28;5.00;;;1.45;;
27746;SDS011;15138;51.012;4.692;2024-01-15T08:16:56;6.63;;;1.80;;
27746;SDS011;15138;51.012;4.692;2024-01-15T08:19:25;6.55;;;1.98;;
27746;SDS011;15138;51.012;4.692;2024-01-15T08:21:53;5.25;;;1.65;;
27746;SDS011;15138;51.012;4.692;2024-01-15T08:24:22;5.07;;;2.10;;
27746;SDS011;15138;51.012;4.692;2024-01-15T08:26:50;7.40;;;2.17;;
27746;SDS011;15138;51.012;4.692;2024-01-15T08:29:20;6.53;;;1.58;;
27746;SDS011;15138;51.012;4.692;2024-01-15T08:31:51;6.82;;;1.80;;
27746;SDS011;15138;51.012;4.692;2024-01-15T08:34:19;13.95;;;1.77;;
27746;SDS011;15138;51.012;4.692;2024-01-15T08:36:48;10.88;;;1.85;;
27746;SDS011;15138;51.012;4.692;2024-01-15T08:39:16;5.20;;;1.95;;
27746;SDS011;15138;51.012;4.692;2024-01-15T08:41:45;5.25;;;2.00;;
27746;SDS011;15138;51.012;4.692;2024-01-15T08:44:14;6.15;;;1.83;;
27746;SDS011;15138;51.012;4.692;2024-01-15T08:46:44;11.65;;;1.70;;
27746;SDS011;15138;51.012;4.692;2024-01-15T08:49:12;4.53;;;1.33;;
27746;SDS011;15138;51.012;4.692;2024-01-15T08:51:41;5.15;;;1.80;;
27746;SDS011;15138;51.012;4.692;2024-01-15T08:54:09;9.00;;;1.95;;
27746;SDS011;15138;51.012;4.692;2024-01-15T08:56:38;7.50;;;1.85;;
27746;SDS011;15138;51.012;4.692;2024-01-15T08:59:06;12.55;;;2.00;;
27746;SDS011;15138;51.012;4.692;2024-01-15T09:01:35;5.60;;;1.80;;
27746;SDS011;15138;51.012;4.692;2024-01-15T09:04:05;6.18;;;1.90;;
27746;SDS011;15138;51.012;4.692;2024-01-15T09:06:33;3.42;;;1.25;;
27746;SDS011;15138;51.012;4.692;2024-01-15T09:09:02;5.97;;;1.88;;
27746;SDS011;15138;51.012;4.692;2024-01-15T09:11:30;4.05;;;2.00;;
27746;SDS011;15138;51.012;4.692;2024-01-15T09:14:00;4.82;;;1.85;;
27746;SDS011;15138;51.012;4.692;2024-01-15T09:16:29;6.10;;;1.90;;
27746;SDS011;15138;51.012;4.692;2024-01-15T09:18:57;7.80;;;1.73;;
27746;SDS011;15138;51.012;4.692;2024-01-15T09:21:27;5.30;;;1.52;;
27746;SDS011;15138;51.012;4.692;2024-01-15T09:23:56;9.13;;;1.67;;
27746;SDS011;15138;51.012;4.692;2024-01-15T09:26:24;4.90;;;1.52;;
27746;SDS011;15138;51.012;4.692;2024-01-15T09:28:53;10.23;;;1.90;;
27746;SDS011;15138;51.012;4.692;2024-01-15T09:31:21;3.53;;;1.40;;
27746;SDS011;15138;51.012;4.692;2024-01-15T09:33:50;8.73;;;1.95;;
27746;SDS011;15138;51.012;4.692;2024-01-15T09:36:22;9.43;;;2.10;;
27746;SDS011;15138;51.012;4.692;2024-01-15T09:38:53;5.80;;;1.50;;
27746;SDS011;15138;51.012;4.692;2024-01-15T09:41:21;10.20;;;1.90;;
27746;SDS011;15138;51.012;4.692;2024-01-15T09:43:50;6.80;;;1.85;;
27746;SDS011;15138;51.012;4.692;2024-01-15T09:46:18;5.55;;;1.55;;
27746;SDS011;15138;51.012;4.692;2024-01-15T09:48:47;4.88;;;1.33;;
27746;SDS011;15138;51.012;4.692;2024-01-15T09:51:16;5.85;;;1.55;;
27746;SDS011;15138;51.012;4.692;2024-01-15T09:53:44;13.48;;;2.17;;
27746;SDS011;15138;51.012;4.692;2024-01-15T09:56:14;8.35;;;1.83;;
27746;SDS011;15138;51.012;4.692;2024-01-15T09:58:43;5.15;;;1.88;;
27746;SDS011;15138;51.012;4.692;2024-01-15T10:01:12;12.05;;;1.95;;
27746;SDS011;15138;51.012;4.692;2024-01-15T10:03:41;9.40;;;2.10;;
27746;SDS011;15138;51.012;4.692;2024-01-15T10:06:10;5.57;;;1.35;;
27746;SDS011;15138;51.012;4.692;2024-01-15T10:08:39;10.45;;;2.45;;
27746;SDS011;15138;51.012;4.692;2024-01-15T10:11:08;7.95;;;2.15;;
27746;SDS011;15138;51.012;4.692;2024-01-15T10:13:38;5.63;;;1.90;;
27746;SDS011;15138;51.012;4.692;2024-01-15T10:16:07;13.05;;;2.58;;
27746;SDS011;15138;51.012;4.692;2024-01-15T10:18:37;8.55;;;1.92;;
27746;SDS011;15138;51.012;4.692;2024-01-15T10:21:06;9.70;;;2.50;;
27746;SDS011;15138;51.012;4.692;2024-01-15T10:23:35;2.58;;;1.10;;
27746;SDS011;15138;51.012;4.692;2024-01-15T10:26:04;6.40;;;1.83;;
27746;SDS011;15138;51.012;4.692;2024-01-15T10:28:32;16.70;;;2.22;;
27746;SDS011;15138;51.012;4.692;2024-01-15T10:31:02;6.38;;;1.42;;
27746;SDS011;15138;51.012;4.692;2024-01-15T10:33:31;9.40;;;2.20;;
27746;SDS011;15138;51.012;4.692;2024-01-15T10:36:00;7.18;;;1.20;;
27746;SDS011;15138;51.012;4.692;2024-01-15T10:38:28;6.63;;;1.85;;
27746;SDS011;15138;51.012;4.692;2024-01-15T10:40:57;5.03;;;1.60;;
27746;SDS011;15138;51.012;4.692;2024-01-15T10:43:25;6.30;;;1.77;;
27746;SDS011;15138;51.012;4.692;2024-01-15T10:45:55;8.55;;;2.17;;
27746;SDS011;15138;51.012;4.692;2024-01-15T10:48:24;8.65;;;1.90;;
27746;SDS011;15138;51.012;4.692;2024-01-15T10:50:54;7.88;;;2.08;;
27746;SDS011;15138;51.012;4.692;2024-01-15T10:53:24;4.13;;;1.10;;
27746;SDS011;15138;51.012;4.692;2024-01-15T10:55:52;6.97;;;1.35;;
27746;SDS011;15138;51.012;4.692;2024-01-15T10:58:21;10.00;;;1.92;;
27746;SDS011;15138;51.012;4.692;2024-01-15T11:00:49;8.77;;;1.73;;
27746;SDS011;15138;51.012;4.692;2024-01-15T11:03:18;5.38;;;1.27;;
27746;SDS011;15138;51.012;4.692;2024-01-15T11:05:48;11.10;;;2.67;;
27746;SDS011;15138;51.012;4.692;2024-01-15T11:08:17;7.10;;;2.10;;
27746;SDS011;15138;51.012;4.692;2024-01-15T11:10:46;3.75;;;0.95;;
27746;SDS011;15138;51.012;4.692;2024-01-15T11:13:19;5.82;;;1.70;;
27746;SDS011;15138;51.012;4.692;2024-01-15T11:15:55;6.28;;;1.15;;
27746;SDS011;15138;51.012;4.692;2024-01-15T11:18:23;4.75;;;0.98;;
27746;SDS011;15138;51.012;4.692;2024-01-15T11:23:45;3.80;;;1.00;;
27746;SDS011;15138;51.012;4.692;2024-01-15T11:26:29;7.05;;;1.40;;
27746;SDS011;15138;51.012;4.692;2024-01-15T11:28:58;5.43;;;1.55;;
27746;SDS011;15138;51.012;4.692;2024-01-15T11:31:27;6.97;;;1.65;;
27746;SDS011;15138;51.012;4.692;2024-01-15T11:33:56;8.63;;;1.75;;
27746;SDS011;15138;51.012;4.692;2024-01-15T11:42:09;4.18;;;1.00;;
27746;SDS011;15138;51.012;4.692;2024-01-15T11:44:37;10.10;;;1.90;;
27746;SDS011;15138;51.012;4.692;2024-01-15T11:47:06;2.22;;;0.98;;
27746;SDS011;15138;51.012;4.692;2024-01-15T11:49:49;8.63;;;1.70;;
27746;SDS011;15138;51.012;4.692;2024-01-15T11:52:24;3.53;;;1.30;;
27746;SDS011;15138;51.012;4.692;2024-01-15T11:54:55;3.38;;;0.85;;
27746;SDS011;15138;51.012;4.692;2024-01-15T11:57:28;3.50;;;1.10;;
27746;SDS011;15138;51.012;4.692;2024-01-15T11:59:59;4.53;;;0.57;;
27746;SDS011;15138;51.012;4.692;2024-01-15T12:02:30;6.45;;;1.27;;
27746;SDS011;15138;51.012;4.692;2024-01-15T12:04:58;4.50;;;0.98;;
27746;SDS011;15138;51.012;4.692;2024-01-15T12:07:27;4.43;;;0.93;;
27746;SDS011;15138;51.012;4.692;2024-01-15T12:09:55;9.27;;;2.20;;
27746;SDS011;15138;51.012;4.692;2024-01-15T12:12:24;9.68;;;1.70;;
27746;SDS011;15138;51.012;4.692;2024-01-15T12:14:57;3.70;;;0.88;;
27746;SDS011;15138;51.012;4.692;2024-01-15T12:17:25;4.25;;;0.95;;
27746;SDS011;15138;51.012;4.692;2024-01-15T12:19:54;4.90;;;1.20;;
27746;SDS011;15138;51.012;4.692;2024-01-15T12:22:23;5.68;;;1.17;;
27746;SDS011;15138;51.012;4.692;2024-01-15T12:24:51;4.85;;;1.15;;
27746;SDS011;15138;51.012;4.692;2024-01-15T12:27:20;4.13;;;0.77;;
27746;SDS011;15138;51.012;4.692;2024-01-15T12:29:49;4.90;;;1.02;;
27746;SDS011;15138;51.012;4.692;2024-01-15T12:32:19;3.67;;;1.20;;
27746;SDS011;15138;51.012;4.692;2024-01-15T12:34:49;5.95;;;1.10;;
27746;SDS011;15138;51.012;4.692;2024-01-15T12:37:17;4.93;;;1.15;;
27746;SDS011;15138;51.012;4.692;2024-01-15T12:39:46;2.75;;;0.90;;
27746;SDS011;15138;51.012;4.692;2024-01-15T12:42:15;4.53;;;1.20;;
27746;SDS011;15138;51.012;4.692;2024-01-15T12:44:44;6.50;;;1.48;;
27746;SDS011;15138;51.012;4.692;2024-01-15T12:47:13;2.90;;;0.82;;
27746;SDS011;15138;51.012;4.692;2024-01-15T12:49:47;4.22;;;0.82;;
27746;SDS011;15138;51.012;4.692;2024-01-15T12:52:26;6.93;;;1.45;;
27746;SDS011;15138;51.012;4.692;2024-01-15T12:54:56;1.60;;;0.80;;
27746;SDS011;15138;51.012;4.692;2024-01-15T12:57:25;1.88;;;0.80;;
27746;SDS011;15138;51.012;4.692;2024-01-15T12:59:54;1.73;;;1.00;;
27746;SDS011;15138;51.012;4.692;2024-01-15T13:02:22;4.85;;;0.85;;
27746;SDS011;15138;51.012;4.692;2024-01-15T13:04:53;0.82;;;0.60;;
27746;SDS011;15138;51.012;4.692;2024-01-15T13:07:22;1.02;;;0.63;;
27746;SDS011;15138;51.012;4.692;2024-01-15T13:09:50;1.70;;;0.73;;
27746;SDS011;15138;51.012;4.692;2024-01-15T13:12:20;2.33;;;1.00;;
27746;SDS011;15138;51.012;4.692;2024-01-15T13:14:50;1.08;;;0.68;;
27746;SDS011;15138;51.012;4.692;2024-01-15T13:17:18;4.97;;;1.05;;
27746;SDS011;15138;51.012;4.692;2024-01-15T13:19:48;1.52;;;0.77;;
27746;SDS011;15138;51.012;4.692;2024-01-15T13:22:18;1.15;;;0.80;;
27746;SDS011;15138;51.012;4.692;2024-01-15T13:24:49;2.75;;;0.80;;
27746;SDS011;15138;51.012;4.692;2024-01-15T13:27:17;0.85;;;0.63;;
27746;SDS011;15138;51.012;4.692;2024-01-15T13:29:46;1.00;;;0.85;;
27746;SDS011;15138;51.012;4.692;2024-01-15T13:32:14;1.00;;;0.50;;
27746;SDS011;15138;51.012;4.692;2024-01-15T13:34:46;2.67;;;0.80;;
27746;SDS011;15138;51.012;4.692;2024-01-15T13:37:15;4.15;;;0.82;;
27746;SDS011;15138;51.012;4.692;2024-01-15T13:39:45;4.22;;;0.43;;
27746;SDS011;15138;51.012;4.692;2024-01-15T13:42:13;1.88;;;0.63;;
27746;SDS011;15138;51.012;4.692;2024-01-15T13:44:42;2.20;;;0.80;;
27746;SDS011;15138;51.012;4.692;2024-01-15T13:47:10;0.70;;;0.70;;
27746;SDS011;15138;51.012;4.692;2024-01-15T13:49:39;2.55;;;0.75;;
27746;SDS011;15138;51.012;4.692;2024-01-15T13:52:07;1.48;;;0.85;;
27746;SDS011;15138;51.012;4.692;2024-01-15T13:54:36;4.35;;;0.90;;
27746;SDS011;15138;51.012;4.692;2024-01-15T13:57:17;0.95;;;0.60;;
27746;SDS011;15138;51.012;4.692;2024-01-15T13:59:46;3.40;;;1.00;;
27746;SDS011;15138;51.012;4.692;2024-01-15T14:02:16;0.98;;;0.60;;
27746;SDS011;15138;51.012;4.692;2024-01-15T14:04:49;1.42;;;0.40;;
27746;SDS011;15138;51.012;4.692;2024-01-15T14:07:18;2.10;;;0.82;;
27746;SDS011;15138;51.012;4.692;2024-01-15T14:09:46;2.00;;;1.00;;
27746;SDS011;15138;51.012;4.692;2024-01-15T14:12:16;1.08;;;0.52;;
27746;SDS011;15138;51.012;4.692;2024-01-15T14:14:45;1.85;;;0.85;;
27746;SDS011;15138;51.012;4.692;2024-01-15T14:17:14;1.02;;;0.63;;
27746;SDS011;15138;51.012;4.692;2024-01-15T14:19:44;2.85;;;0.52;;
27746;SDS011;15138;51.012;4.692;2024-01-15T14:22:12;3.70;;;1.02;;
27746;SDS011;15138;51.012;4.692;2024-01-15T14:24:41;3.60;;;1.00;;
27746;SDS011;15138;51.012;4.692;2024-01-15T14:27:09;0.80;;;0.60;;
27746;SDS011;15138;51.012;4.692;2024-01-15T14:29:39;2.80;;;1.15;;
27746;SDS011;15138;51.012;4.692;2024-01-15T14:32:07;1.33;;;0.63;;
27746;SDS011;15138;51.012;4.692;2024-01-15T14:34:36;1.70;;;0.93;;
27746;SDS011;15138;51.012;4.692;2024-01-15T14:37:05;1.92;;;1.10;;
27746;SDS011;15138;51.012;4.692;2024-01-15T14:39:34;3.92;;;0.80;;
27746;SDS011;15138;51.012;4.692;2024-01-15T14:42:02;2.22;;;0.75;;
27746;SDS011;15138;51.012;4.692;2024-01-15T14:44:31;3.28;;;1.00;;
27746;SDS011;15138;51.012;4.692;2024-01-15T14:47:02;1.52;;;0.95;;
27746;SDS011;15138;51.012;4.692;2024-01-15T14:49:31;4.70;;;1.00;;
27746;SDS011;15138;51.012;4.692;2024-01-15T14:52:00;4.63;;;1.10;;
27746;SDS011;15138;51.012;4.692;2024-01-15T14:54:29;2.20;;;0.82;;
27746;SDS011;15138;51.012;4.692;2024-01-15T14:56:57;3.42;;;1.20;;
27746;SDS011;15138;51.012;4.692;2024-01-15T14:59:26;2.25;;;1.23;;
27746;SDS011;15138;51.012;4.692;2024-01-15T15:01:55;3.65;;;1.20;;